createdAt,value
2022-10-13T00:00:16.954Z,1008.64
2022-10-13T00:01:17.073Z,1008.66
2022-10-13T00:02:17.314Z,1008.70
2022-10-13T00:03:17.617Z,1008.68
2022-10-13T00:04:16.971Z,1008.71
2022-10-13T00:05:17.620Z,1008.67
2022-10-13T00:06:16.885Z,1008.69
2022-10-13T00:07:16.883Z,1008.67
2022-10-13T00:08:16.862Z,1008.66
2022-10-13T00:09:16.910Z,1008.67
2022-10-13T00:10:17.562Z,1008.67
2022-10-13T00:11:16.865Z,1008.68
2022-10-13T00:12:17.309Z,1008.64
2022-10-13T00:13:16.822Z,1008.68
2022-10-13T00:14:18.612Z,1008.65
2022-10-13T00:15:17.615Z,1008.62
2022-10-13T00:16:16.780Z,1008.59
2022-10-13T00:17:16.778Z,1008.64
2022-10-13T00:18:16.759Z,1008.57
2022-10-13T00:19:19.548Z,1008.60
2022-10-13T00:20:16.783Z,1008.59
2022-10-13T00:21:18.568Z,1008.60
2022-10-13T00:22:17.267Z,1008.58
2022-10-13T00:23:16.709Z,1008.62
2022-10-13T00:24:16.692Z,1008.62
2022-10-13T00:25:18.671Z,1008.57
2022-10-13T00:26:16.746Z,1008.56
2022-10-13T00:27:16.654Z,1008.59
2022-10-13T00:28:18.663Z,1008.58
2022-10-13T00:29:16.648Z,1008.57
2022-10-13T00:30:16.628Z,1008.52
2022-10-13T00:31:16.631Z,1008.56
2022-10-13T00:32:16.911Z,1008.57
2022-10-13T00:33:16.619Z,1008.60
2022-10-13T00:34:16.630Z,1008.56
2022-10-13T00:35:16.573Z,1008.56
2022-10-13T00:36:16.569Z,1008.53
2022-10-13T00:37:16.544Z,1008.55
2022-10-13T00:38:18.598Z,1008.56
2022-10-13T00:39:16.523Z,1008.58
2022-10-13T00:40:16.519Z,1008.58
2022-10-13T00:41:16.554Z,1008.62
2022-10-13T00:42:17.192Z,1008.60
2022-10-13T00:43:16.478Z,1008.63
2022-10-13T00:44:21.072Z,1008.62
2022-10-13T00:45:17.194Z,1008.63
2022-10-13T00:46:17.548Z,1008.61
2022-10-13T00:47:16.452Z,1008.67
2022-10-13T00:48:16.432Z,1008.59
2022-10-13T00:49:16.412Z,1008.58
2022-10-13T00:50:16.433Z,1008.65
2022-10-13T00:51:16.396Z,1008.63
2022-10-13T00:52:16.705Z,1008.60
2022-10-13T00:53:16.371Z,1008.62
2022-10-13T00:54:16.365Z,1008.60
2022-10-13T00:55:16.346Z,1008.61
2022-10-13T00:56:16.332Z,1008.58
2022-10-13T00:57:16.370Z,1008.61
2022-10-13T00:58:16.363Z,1008.57
2022-10-13T00:59:16.309Z,1008.56
2022-10-13T01:00:16.994Z,1008.59
2022-10-13T01:01:16.318Z,1008.56
2022-10-13T01:02:17.790Z,1008.57
2022-10-13T01:03:16.283Z,1008.59
2022-10-13T01:04:16.310Z,1008.60
2022-10-13T01:05:16.235Z,1008.60
2022-10-13T01:06:19.794Z,1008.61
2022-10-13T01:07:16.286Z,1008.61
2022-10-13T01:08:16.203Z,1008.66
2022-10-13T01:09:16.202Z,1008.61
2022-10-13T01:10:16.210Z,1008.66
2022-10-13T01:11:16.171Z,1008.60
2022-10-13T01:12:16.626Z,1008.59
2022-10-13T01:13:16.151Z,1008.59
2022-10-13T01:14:16.137Z,1008.59
2022-10-13T01:15:17.050Z,1008.55
2022-10-13T01:16:16.113Z,1008.62
2022-10-13T01:17:16.116Z,1008.59
2022-10-13T01:18:16.094Z,1008.58
2022-10-13T01:19:16.115Z,1008.58
2022-10-13T01:20:16.594Z,1008.52
2022-10-13T01:21:16.059Z,1008.61
2022-10-13T01:22:16.446Z,1008.61
2022-10-13T01:23:17.104Z,1008.58
2022-10-13T01:24:18.064Z,1008.58
2022-10-13T01:25:17.059Z,1008.52
2022-10-13T01:26:16.002Z,1008.56
2022-10-13T01:27:17.029Z,1008.58
2022-10-13T01:28:16.003Z,1008.54
2022-10-13T01:29:16.027Z,1008.49
2022-10-13T01:30:15.962Z,1008.49
2022-10-13T01:31:16.644Z,1008.49
2022-10-13T01:32:17.519Z,1008.54
2022-10-13T01:33:16.706Z,1008.48
2022-10-13T01:34:15.913Z,1008.46
2022-10-13T01:35:16.528Z,1008.50
2022-10-13T01:36:15.904Z,1008.49
2022-10-13T01:37:16.754Z,1008.49
2022-10-13T01:38:15.885Z,1008.51
2022-10-13T01:39:15.859Z,1008.56
2022-10-13T01:40:17.512Z,1008.57
2022-10-13T01:41:15.915Z,1008.62
2022-10-13T01:42:16.211Z,1008.61
2022-10-13T01:43:15.826Z,1008.58
2022-10-13T01:44:15.814Z,1008.46
2022-10-13T01:45:15.794Z,1008.44
2022-10-13T01:46:17.671Z,1008.44
2022-10-13T01:47:15.846Z,1008.45
2022-10-13T01:48:15.759Z,1008.45
2022-10-13T01:49:15.755Z,1008.45
2022-10-13T01:50:15.737Z,1008.45
2022-10-13T01:51:15.750Z,1008.42
2022-10-13T01:52:16.079Z,1008.48
2022-10-13T01:53:15.775Z,1008.39
2022-10-13T01:54:15.711Z,1008.42
2022-10-13T01:55:15.684Z,1008.31
2022-10-13T01:56:15.722Z,1008.29
2022-10-13T01:57:16.692Z,1008.27
2022-10-13T01:58:16.569Z,1008.22
2022-10-13T01:59:15.640Z,1008.20
2022-10-13T02:00:15.626Z,1008.22
2022-10-13T02:01:16.120Z,1008.24
2022-10-13T02:02:16.056Z,1008.20
2022-10-13T02:03:15.646Z,1008.14
2022-10-13T02:04:15.583Z,1008.14
2022-10-13T02:05:15.573Z,1008.18
2022-10-13T02:06:16.072Z,1008.12
2022-10-13T02:07:15.577Z,1008.13
2022-10-13T02:08:15.550Z,1008.05
2022-10-13T02:09:15.533Z,1008.05
2022-10-13T02:10:27.585Z,1008.07
2022-10-13T02:11:15.558Z,1008.07
2022-10-13T02:12:15.730Z,1008.06
2022-10-13T02:13:16.961Z,1008.02
2022-10-13T02:14:22.631Z,1008.04
2022-10-13T02:15:15.467Z,1008.02
2022-10-13T02:16:15.450Z,1008.04
2022-10-13T02:17:19.475Z,1008.03
2022-10-13T02:18:15.964Z,1008.01
2022-10-13T02:19:15.421Z,1007.96
2022-10-13T02:20:15.534Z,1007.96
2022-10-13T02:21:15.426Z,1007.94
2022-10-13T02:22:15.415Z,1007.95
2022-10-13T02:23:15.396Z,1007.94
2022-10-13T02:24:15.436Z,1007.97
2022-10-13T02:25:15.353Z,1007.98
2022-10-13T02:26:15.347Z,1007.97
2022-10-13T02:27:15.348Z,1007.93
2022-10-13T02:28:15.391Z,1007.98
2022-10-13T02:29:16.042Z,1007.97
2022-10-13T02:30:15.300Z,1007.97
2022-10-13T02:31:16.290Z,1007.96
2022-10-13T02:32:15.345Z,1007.95
2022-10-13T02:33:15.265Z,1007.97
2022-10-13T02:34:15.264Z,1008.03
2022-10-13T02:35:15.303Z,1007.99
2022-10-13T02:36:15.238Z,1007.90
2022-10-13T02:37:15.226Z,1007.85
2022-10-13T02:38:15.221Z,1007.93
2022-10-13T02:39:15.228Z,1007.90
2022-10-13T02:40:15.191Z,1007.93
2022-10-13T02:41:15.234Z,1007.92
2022-10-13T02:42:15.174Z,1007.93
2022-10-13T02:43:15.159Z,1007.96
2022-10-13T02:44:17.003Z,1007.94
2022-10-13T02:45:15.193Z,1007.89
2022-10-13T02:46:16.184Z,1007.89
2022-10-13T02:47:15.117Z,1007.87
2022-10-13T02:48:15.096Z,1007.89
2022-10-13T02:49:15.089Z,1007.88
2022-10-13T02:50:17.066Z,1007.87
2022-10-13T02:51:15.117Z,1007.87
2022-10-13T02:52:15.124Z,1007.90
2022-10-13T02:53:15.043Z,1007.87
2022-10-13T02:54:15.124Z,1007.87
2022-10-13T02:55:15.052Z,1007.85
2022-10-13T02:56:15.029Z,1007.84
2022-10-13T02:57:14.999Z,1007.84
2022-10-13T02:58:14.998Z,1007.90
2022-10-13T02:59:26.273Z,1007.93
2022-10-13T03:00:15.016Z,1007.85
2022-10-13T03:01:15.021Z,1007.90
2022-10-13T03:02:14.945Z,1007.94
2022-10-13T03:03:14.937Z,1007.94
2022-10-13T03:04:16.566Z,1007.90
2022-10-13T03:05:16.890Z,1007.88
2022-10-13T03:06:14.902Z,1007.80
2022-10-13T03:07:14.890Z,1007.86
2022-10-13T03:08:14.881Z,1007.87
2022-10-13T03:09:14.866Z,1007.86
2022-10-13T03:10:14.855Z,1007.86
2022-10-13T03:11:14.911Z,1007.86
2022-10-13T03:12:14.837Z,1007.87
2022-10-13T03:13:14.886Z,1007.90
2022-10-13T03:14:14.811Z,1007.93
2022-10-13T03:15:14.799Z,1007.96
2022-10-13T03:16:14.789Z,1007.92
2022-10-13T03:17:14.777Z,1007.94
2022-10-13T03:18:22.028Z,1007.90
2022-10-13T03:19:14.766Z,1007.91
2022-10-13T03:20:15.644Z,1007.87
2022-10-13T03:21:14.804Z,1007.86
2022-10-13T03:22:14.760Z,1007.87
2022-10-13T03:23:14.761Z,1007.81
2022-10-13T03:24:14.706Z,1007.87
2022-10-13T03:25:14.740Z,1007.81
2022-10-13T03:26:15.684Z,1007.81
2022-10-13T03:27:14.685Z,1007.77
2022-10-13T03:28:14.753Z,1007.75
2022-10-13T03:29:14.646Z,1007.72
2022-10-13T03:30:17.427Z,1007.77
2022-10-13T03:31:14.680Z,1007.70
2022-10-13T03:32:14.697Z,1007.61
2022-10-13T03:33:14.602Z,1007.70
2022-10-13T03:34:14.601Z,1007.62
2022-10-13T03:35:14.581Z,1007.64
2022-10-13T03:36:14.591Z,1007.69
2022-10-13T03:37:14.587Z,1007.73
2022-10-13T03:38:15.428Z,1007.65
2022-10-13T03:39:14.534Z,1007.64
2022-10-13T03:40:14.575Z,1007.61
2022-10-13T03:41:14.517Z,1007.67
2022-10-13T03:42:14.986Z,1007.62
2022-10-13T03:43:14.535Z,1007.65
2022-10-13T03:44:14.486Z,1007.54
2022-10-13T03:45:15.429Z,1007.63
2022-10-13T03:46:14.460Z,1007.64
2022-10-13T03:47:14.490Z,1007.64
2022-10-13T03:48:14.497Z,1007.66
2022-10-13T03:49:14.429Z,1007.71
2022-10-13T03:50:14.425Z,1007.72
2022-10-13T03:51:20.970Z,1007.75
2022-10-13T03:52:14.395Z,1007.75
2022-10-13T03:53:14.386Z,1007.75
2022-10-13T03:54:14.423Z,1007.71
2022-10-13T03:55:14.358Z,1007.70
2022-10-13T03:56:14.348Z,1007.71
2022-10-13T03:57:15.337Z,1007.66
2022-10-13T03:58:14.326Z,1007.76
2022-10-13T03:59:14.544Z,1007.73
2022-10-13T04:00:21.006Z,1007.76
2022-10-13T04:01:14.942Z,1007.72
2022-10-13T04:02:16.011Z,1007.73
2022-10-13T04:03:14.293Z,1007.73
2022-10-13T04:04:14.261Z,1007.62
2022-10-13T04:05:14.299Z,1007.67
2022-10-13T04:06:20.525Z,1007.61
2022-10-13T04:07:14.245Z,1007.64
2022-10-13T04:08:14.215Z,1007.58
2022-10-13T04:09:17.069Z,1007.56
2022-10-13T04:10:14.193Z,1007.49
2022-10-13T04:11:14.207Z,1007.51
2022-10-13T04:12:20.674Z,1007.49
2022-10-13T04:13:14.159Z,1007.52
2022-10-13T04:14:14.347Z,1007.51
2022-10-13T04:15:16.113Z,1007.50
2022-10-13T04:16:14.636Z,1007.54
2022-10-13T04:17:14.125Z,1007.45
2022-10-13T04:18:16.924Z,1007.47
2022-10-13T04:19:14.114Z,1007.42
2022-10-13T04:20:14.114Z,1007.41
2022-10-13T04:21:15.200Z,1007.41
2022-10-13T04:22:14.068Z,1007.38
2022-10-13T04:23:14.957Z,1007.32
2022-10-13T04:24:14.050Z,1007.47
2022-10-13T04:25:14.045Z,1007.36
2022-10-13T04:26:14.028Z,1007.39
2022-10-13T04:27:14.010Z,1007.43
2022-10-13T04:28:14.055Z,1007.41
2022-10-13T04:29:14.002Z,1007.34
2022-10-13T04:30:13.976Z,1007.39
2022-10-13T04:31:14.005Z,1007.34
2022-10-13T04:32:17.695Z,1007.39
2022-10-13T04:33:15.067Z,1007.36
2022-10-13T04:34:13.962Z,1007.40
2022-10-13T04:35:13.917Z,1007.41
2022-10-13T04:36:14.515Z,1007.40
2022-10-13T04:37:15.159Z,1007.35
2022-10-13T04:38:13.900Z,1007.34
2022-10-13T04:39:13.873Z,1007.42
2022-10-13T04:40:14.870Z,1007.35
2022-10-13T04:41:13.885Z,1007.36
2022-10-13T04:42:13.860Z,1007.37
2022-10-13T04:43:13.829Z,1007.31
2022-10-13T04:44:13.898Z,1007.34
2022-10-13T04:45:13.811Z,1007.34
2022-10-13T04:46:13.820Z,1007.32
2022-10-13T04:47:13.804Z,1007.34
2022-10-13T04:48:13.779Z,1007.31
2022-10-13T04:49:13.762Z,1007.27
2022-10-13T04:50:13.764Z,1007.34
2022-10-13T04:51:13.750Z,1007.39
2022-10-13T04:52:13.754Z,1007.36
2022-10-13T04:53:18.946Z,1007.27
2022-10-13T04:54:13.720Z,1007.29
2022-10-13T04:55:13.706Z,1007.24
2022-10-13T04:56:13.694Z,1007.29
2022-10-13T04:57:13.696Z,1007.30
2022-10-13T04:58:13.676Z,1007.31
2022-10-13T04:59:13.653Z,1007.34
2022-10-13T05:00:13.644Z,1007.30
2022-10-13T05:01:16.472Z,1007.27
2022-10-13T05:02:14.642Z,1007.28
2022-10-13T05:03:13.668Z,1007.30
2022-10-13T05:04:13.630Z,1007.33
2022-10-13T05:05:13.601Z,1007.20
2022-10-13T05:06:13.576Z,1007.24
2022-10-13T05:07:17.989Z,1007.25
2022-10-13T05:08:13.559Z,1007.19
2022-10-13T05:09:13.582Z,1007.32
2022-10-13T05:10:13.583Z,1007.31
2022-10-13T05:11:13.522Z,1007.21
2022-10-13T05:12:13.509Z,1007.28
2022-10-13T05:13:13.500Z,1007.20
2022-10-13T05:14:13.509Z,1007.22
2022-10-13T05:15:13.501Z,1007.24
2022-10-13T05:16:13.466Z,1007.24
2022-10-13T05:17:13.454Z,1007.29
2022-10-13T05:18:13.442Z,1007.23
2022-10-13T05:19:13.496Z,1007.24
2022-10-13T05:20:13.444Z,1007.25
2022-10-13T05:21:13.425Z,1007.29
2022-10-13T05:22:13.403Z,1007.32
2022-10-13T05:23:13.411Z,1007.33
2022-10-13T05:24:13.381Z,1007.32
2022-10-13T05:25:13.397Z,1007.36
2022-10-13T05:26:13.370Z,1007.34
2022-10-13T05:27:13.360Z,1007.33
2022-10-13T05:28:13.432Z,1007.40
2022-10-13T05:29:13.347Z,1007.37
2022-10-13T05:30:13.318Z,1007.33
2022-10-13T05:31:13.326Z,1007.31
2022-10-13T05:32:13.316Z,1007.37
2022-10-13T05:33:13.277Z,1007.41
2022-10-13T05:34:13.267Z,1007.37
2022-10-13T05:35:13.328Z,1007.47
2022-10-13T05:36:13.273Z,1007.43
2022-10-13T05:37:13.236Z,1007.41
2022-10-13T05:38:13.229Z,1007.38
2022-10-13T05:39:13.249Z,1007.42
2022-10-13T05:40:13.203Z,1007.48
2022-10-13T05:41:13.200Z,1007.46
2022-10-13T05:42:13.185Z,1007.46
2022-10-13T05:43:13.184Z,1007.55
2022-10-13T05:44:13.177Z,1007.49
2022-10-13T05:45:13.174Z,1007.49
2022-10-13T05:46:13.137Z,1007.52
2022-10-13T05:47:13.125Z,1007.50
2022-10-13T05:48:13.130Z,1007.54
2022-10-13T05:49:13.105Z,1007.58
2022-10-13T05:50:13.112Z,1007.55
2022-10-13T05:51:13.190Z,1007.60
2022-10-13T05:52:13.072Z,1007.56
2022-10-13T05:53:13.078Z,1007.56
2022-10-13T05:54:13.067Z,1007.58
2022-10-13T05:55:13.060Z,1007.54
2022-10-13T05:56:13.044Z,1007.55
2022-10-13T05:57:13.050Z,1007.53
2022-10-13T05:58:13.027Z,1007.50
2022-10-13T05:59:13.010Z,1007.52
2022-10-13T06:00:12.984Z,1007.59
2022-10-13T06:01:12.980Z,1007.58
2022-10-13T06:02:13.040Z,1007.64
2022-10-13T06:03:12.951Z,1007.62
2022-10-13T06:04:12.935Z,1007.62
2022-10-13T06:05:13.123Z,1007.65
2022-10-13T06:06:12.936Z,1007.61
2022-10-13T06:07:12.989Z,1007.59
2022-10-13T06:08:12.922Z,1007.59
2022-10-13T06:09:12.883Z,1007.63
2022-10-13T06:10:12.908Z,1007.59
2022-10-13T06:11:12.859Z,1007.56
2022-10-13T06:12:12.853Z,1007.57
2022-10-13T06:13:12.857Z,1007.58
2022-10-13T06:14:12.827Z,1007.54
2022-10-13T06:15:12.823Z,1007.48
2022-10-13T06:16:12.836Z,1007.52
2022-10-13T06:17:12.795Z,1007.53
2022-10-13T06:18:12.786Z,1007.48
2022-10-13T06:19:12.781Z,1007.52
2022-10-13T06:20:12.767Z,1007.51
2022-10-13T06:21:12.761Z,1007.46
2022-10-13T06:22:12.743Z,1007.49
2022-10-13T06:23:12.742Z,1007.54
2022-10-13T06:24:12.726Z,1007.49
2022-10-13T06:25:12.773Z,1007.45
2022-10-13T06:26:12.707Z,1007.47
2022-10-13T06:27:12.701Z,1007.50
2022-10-13T06:28:12.715Z,1007.57
2022-10-13T06:29:12.728Z,1007.56
2022-10-13T06:30:12.669Z,1007.59
2022-10-13T06:31:12.636Z,1007.48
2022-10-13T06:32:12.632Z,1007.54
2022-10-13T06:33:12.618Z,1007.50
2022-10-13T06:34:12.615Z,1007.52
2022-10-13T06:35:12.618Z,1007.51
2022-10-13T06:36:12.715Z,1007.49
2022-10-13T06:37:12.575Z,1007.51
2022-10-13T06:38:12.565Z,1007.52
2022-10-13T06:39:12.666Z,1007.57
2022-10-13T06:40:12.551Z,1007.54
2022-10-13T06:41:12.542Z,1007.44
2022-10-13T06:42:12.522Z,1007.47
2022-10-13T06:43:12.506Z,1007.46
2022-10-13T06:44:12.543Z,1007.46
2022-10-13T06:45:12.484Z,1007.53
2022-10-13T06:46:12.489Z,1007.49
2022-10-13T06:47:12.471Z,1007.49
2022-10-13T06:48:12.480Z,1007.50
2022-10-13T06:49:12.438Z,1007.46
2022-10-13T06:50:12.428Z,1007.50
2022-10-13T06:51:12.420Z,1007.46
2022-10-13T06:52:12.408Z,1007.41
2022-10-13T06:53:12.440Z,1007.42
2022-10-13T06:54:12.397Z,1007.45
2022-10-13T06:55:12.408Z,1007.47
2022-10-13T06:56:12.370Z,1007.43
2022-10-13T06:57:12.378Z,1007.42
2022-10-13T06:58:12.354Z,1007.38
2022-10-13T06:59:12.401Z,1007.41
2022-10-13T07:00:12.331Z,1007.35
2022-10-13T07:01:12.392Z,1007.37
2022-10-13T07:02:12.298Z,1007.41
2022-10-13T07:03:12.302Z,1007.39
2022-10-13T07:04:12.301Z,1007.41
2022-10-13T07:05:13.853Z,1007.35
2022-10-13T07:06:12.270Z,1007.38
2022-10-13T07:07:12.242Z,1007.32
2022-10-13T07:08:12.232Z,1007.31
2022-10-13T07:09:12.336Z,1007.26
2022-10-13T07:10:12.310Z,1007.27
2022-10-13T07:11:15.882Z,1007.26
2022-10-13T07:12:12.189Z,1007.27
2022-10-13T07:13:12.254Z,1007.28
2022-10-13T07:14:12.183Z,1007.26
2022-10-13T07:15:12.303Z,1007.26
2022-10-13T07:16:12.411Z,1007.29
2022-10-13T07:17:12.385Z,1007.26
2022-10-13T07:18:12.122Z,1007.29
2022-10-13T07:19:12.239Z,1007.27
2022-10-13T07:20:12.109Z,1007.24
2022-10-13T07:21:12.086Z,1007.28
2022-10-13T07:22:12.096Z,1007.24
2022-10-13T07:23:12.100Z,1007.27
2022-10-13T07:24:12.060Z,1007.22
2022-10-13T07:25:12.097Z,1007.24
2022-10-13T07:26:12.033Z,1007.25
2022-10-13T07:27:12.035Z,1007.26
2022-10-13T07:28:12.112Z,1007.26
2022-10-13T07:29:12.096Z,1007.23
2022-10-13T07:30:11.987Z,1007.26
2022-10-13T07:31:12.033Z,1007.25
2022-10-13T07:32:11.989Z,1007.31
2022-10-13T07:33:11.959Z,1007.29
2022-10-13T07:34:11.950Z,1007.19
2022-10-13T07:35:11.931Z,1007.28
2022-10-13T07:36:12.032Z,1007.19
2022-10-13T07:37:11.943Z,1007.23
2022-10-13T07:38:11.930Z,1007.22
2022-10-13T07:39:11.936Z,1007.27
2022-10-13T07:40:11.929Z,1007.25
2022-10-13T07:41:11.892Z,1007.22
2022-10-13T07:42:11.850Z,1007.26
2022-10-13T07:43:11.868Z,1007.22
2022-10-13T07:44:11.923Z,1007.26
2022-10-13T07:45:11.825Z,1007.19
2022-10-13T07:46:11.840Z,1007.27
2022-10-13T07:47:11.802Z,1007.15
2022-10-13T07:48:11.836Z,1007.15
2022-10-13T07:49:15.279Z,1007.17
2022-10-13T07:50:11.772Z,1007.19
2022-10-13T07:51:11.767Z,1007.14
2022-10-13T07:52:11.775Z,1007.18
2022-10-13T07:53:11.767Z,1007.17
2022-10-13T07:54:11.718Z,1007.16
2022-10-13T07:55:11.733Z,1007.20
2022-10-13T07:56:11.708Z,1007.16
2022-10-13T07:57:11.788Z,1007.16
2022-10-13T07:58:11.693Z,1007.18
2022-10-13T07:59:11.729Z,1007.15
2022-10-13T08:00:11.661Z,1007.17
2022-10-13T08:01:11.804Z,1007.19
2022-10-13T08:02:11.630Z,1007.17
2022-10-13T08:03:11.626Z,1007.17
2022-10-13T08:04:11.611Z,1007.15
2022-10-13T08:05:14.301Z,1007.15
2022-10-13T08:06:11.810Z,1007.13
2022-10-13T08:07:11.577Z,1007.13
2022-10-13T08:08:14.433Z,1007.16
2022-10-13T08:09:11.561Z,1007.14
2022-10-13T08:10:11.554Z,1007.13
2022-10-13T08:11:14.638Z,1007.10
2022-10-13T08:12:11.520Z,1007.11
2022-10-13T08:13:11.511Z,1007.09
2022-10-13T08:14:11.520Z,1007.06
2022-10-13T08:15:11.508Z,1007.10
2022-10-13T08:16:11.515Z,1007.09
2022-10-13T08:17:11.469Z,1007.08
2022-10-13T08:18:11.466Z,1007.09
2022-10-13T08:19:11.445Z,1007.07
2022-10-13T08:20:11.453Z,1007.10
2022-10-13T08:21:39.155Z,1007.04
2022-10-13T08:22:12.427Z,1007.07
2022-10-13T08:23:11.423Z,1007.03
2022-10-13T08:24:11.395Z,1007.01
2022-10-13T08:25:11.408Z,1006.99
2022-10-13T08:26:11.484Z,1007.00
2022-10-13T08:27:11.359Z,1006.96
2022-10-13T08:28:11.340Z,1006.95
2022-10-13T08:29:26.769Z,1006.90
2022-10-13T08:30:12.409Z,1006.97
2022-10-13T08:31:11.554Z,1006.91
2022-10-13T08:32:11.321Z,1006.92
2022-10-13T08:33:11.286Z,1006.93
2022-10-13T08:34:11.332Z,1006.89
2022-10-13T08:35:11.294Z,1006.88
2022-10-13T08:36:11.253Z,1006.83
2022-10-13T08:37:11.254Z,1006.84
2022-10-13T08:38:11.258Z,1006.83
2022-10-13T08:39:11.220Z,1006.86
2022-10-13T08:40:11.276Z,1006.85
2022-10-13T08:41:11.200Z,1006.83
2022-10-13T08:42:11.216Z,1006.79
2022-10-13T08:43:11.184Z,1006.71
2022-10-13T08:44:59.260Z,1006.72
2022-10-13T08:45:42.216Z,1006.76
2022-10-13T08:46:12.161Z,1006.75
2022-10-13T08:47:11.320Z,1006.73
2022-10-13T08:48:11.152Z,1006.77
2022-10-13T08:49:11.121Z,1006.81
2022-10-13T08:50:11.864Z,1006.68
2022-10-13T08:51:11.092Z,1006.73
2022-10-13T08:52:11.079Z,1006.66
2022-10-13T08:53:11.774Z,1006.63
2022-10-13T08:54:11.094Z,1006.66
2022-10-13T08:55:11.049Z,1006.60
2022-10-13T08:56:11.054Z,1006.62
2022-10-13T08:57:11.025Z,1006.63
2022-10-13T08:58:11.050Z,1006.61
2022-10-13T08:59:11.003Z,1006.53
2022-10-13T09:00:10.996Z,1006.58
2022-10-13T09:01:10.994Z,1006.55
2022-10-13T09:02:11.043Z,1006.53
2022-10-13T09:03:11.034Z,1006.53
2022-10-13T09:04:10.976Z,1006.57
2022-10-13T09:05:10.935Z,1006.52
2022-10-13T09:06:10.932Z,1006.57
2022-10-13T09:07:10.923Z,1006.59
2022-10-13T09:08:10.901Z,1006.55
2022-10-13T09:09:10.931Z,1006.61
2022-10-13T09:10:10.882Z,1006.62
2022-10-13T09:11:10.895Z,1006.62
2022-10-13T09:12:10.880Z,1006.62
2022-10-13T09:13:10.859Z,1006.61
2022-10-13T09:14:10.891Z,1006.69
2022-10-13T09:15:10.848Z,1006.62
2022-10-13T09:16:10.818Z,1006.64
2022-10-13T09:17:10.876Z,1006.58
2022-10-13T09:18:10.801Z,1006.58
2022-10-13T09:19:10.878Z,1006.58
2022-10-13T09:20:10.783Z,1006.50
2022-10-13T09:21:10.759Z,1006.56
2022-10-13T09:22:10.757Z,1006.48
2022-10-13T09:23:10.745Z,1006.54
2022-10-13T09:24:10.727Z,1006.50
2022-10-13T09:25:10.735Z,1006.55
2022-10-13T09:26:10.706Z,1006.57
2022-10-13T09:27:10.696Z,1006.50
2022-10-13T09:28:10.700Z,1006.54
2022-10-13T09:29:10.672Z,1006.52
2022-10-13T09:30:10.676Z,1006.58
2022-10-13T09:31:13.928Z,1006.57
2022-10-13T09:32:10.659Z,1006.56
2022-10-13T09:33:10.629Z,1006.54
2022-10-13T09:34:10.639Z,1006.50
2022-10-13T09:35:10.628Z,1006.50
2022-10-13T09:36:10.622Z,1006.49
2022-10-13T09:37:11.809Z,1006.57
2022-10-13T09:38:10.573Z,1006.49
2022-10-13T09:39:11.951Z,1006.50
2022-10-13T09:40:10.601Z,1006.51
2022-10-13T09:41:11.568Z,1006.51
2022-10-13T09:42:12.904Z,1006.46
2022-10-13T09:43:10.518Z,1006.51
2022-10-13T09:44:10.516Z,1006.45
2022-10-13T09:45:10.496Z,1006.44
2022-10-13T09:46:10.610Z,1006.49
2022-10-13T09:47:10.635Z,1006.51
2022-10-13T09:48:10.498Z,1006.49
2022-10-13T09:49:10.489Z,1006.46
2022-10-13T09:50:11.288Z,1006.51
2022-10-13T09:51:10.472Z,1006.55
2022-10-13T09:52:10.442Z,1006.49
2022-10-13T09:53:10.420Z,1006.45
2022-10-13T09:54:10.429Z,1006.52
2022-10-13T09:55:10.391Z,1006.46
2022-10-13T09:56:10.377Z,1006.48
2022-10-13T09:57:10.374Z,1006.49
2022-10-13T09:58:10.355Z,1006.45
2022-10-13T09:59:10.362Z,1006.45
2022-10-13T10:00:10.330Z,1006.44
2022-10-13T10:01:11.325Z,1006.45
2022-10-13T10:02:12.352Z,1006.43
2022-10-13T10:03:10.325Z,1006.44
2022-10-13T10:04:10.349Z,1006.45
2022-10-13T10:05:10.286Z,1006.51
2022-10-13T10:06:12.375Z,1006.43
2022-10-13T10:07:10.295Z,1006.49
2022-10-13T10:08:10.273Z,1006.48
2022-10-13T10:09:10.235Z,1006.44
2022-10-13T10:10:10.769Z,1006.41
2022-10-13T10:11:10.220Z,1006.42
2022-10-13T10:12:10.227Z,1006.35
2022-10-13T10:13:10.197Z,1006.39
2022-10-13T10:14:10.177Z,1006.36
2022-10-13T10:15:10.193Z,1006.36
2022-10-13T10:16:10.162Z,1006.31
2022-10-13T10:17:10.228Z,1006.34
2022-10-13T10:18:10.825Z,1006.27
2022-10-13T10:19:10.131Z,1006.29
2022-10-13T10:20:10.277Z,1006.30
2022-10-13T10:21:10.147Z,1006.29
2022-10-13T10:22:10.741Z,1006.30
2022-10-13T10:23:10.130Z,1006.24
2022-10-13T10:24:10.113Z,1006.28
2022-10-13T10:25:10.055Z,1006.28
2022-10-13T10:26:10.078Z,1006.30
2022-10-13T10:27:10.090Z,1006.23
2022-10-13T10:28:10.028Z,1006.25
2022-10-13T10:29:10.011Z,1006.22
2022-10-13T10:30:10.026Z,1006.17
2022-10-13T10:31:09.989Z,1006.25
2022-10-13T10:32:09.990Z,1006.24
2022-10-13T10:33:09.976Z,1006.18
2022-10-13T10:34:12.496Z,1006.12
2022-10-13T10:35:09.944Z,1006.14
2022-10-13T10:36:09.935Z,1006.12
2022-10-13T10:37:09.927Z,1006.08
2022-10-13T10:38:09.917Z,1006.15
2022-10-13T10:39:09.918Z,1006.04
2022-10-13T10:40:09.916Z,1006.07
2022-10-13T10:41:09.903Z,1006.09
2022-10-13T10:42:09.883Z,1006.06
2022-10-13T10:43:09.883Z,1006.06
2022-10-13T10:44:10.750Z,1006.05
2022-10-13T10:45:09.840Z,1006.10
2022-10-13T10:46:09.861Z,1006.06
2022-10-13T10:47:09.826Z,1006.09
2022-10-13T10:48:09.805Z,1006.09
2022-10-13T10:49:09.797Z,1006.04
2022-10-13T10:50:09.779Z,1006.09
2022-10-13T10:51:10.731Z,1006.06
2022-10-13T10:52:09.799Z,1006.04
2022-10-13T10:53:09.782Z,1006.02
2022-10-13T10:54:09.752Z,1006.03
2022-10-13T10:55:09.776Z,1006.05
2022-10-13T10:56:09.736Z,1006.00
2022-10-13T10:57:09.713Z,1005.99
2022-10-13T10:58:09.690Z,1005.97
2022-10-13T10:59:09.686Z,1005.96
2022-10-13T11:00:09.840Z,1006.01
2022-10-13T11:01:09.691Z,1006.00
2022-10-13T11:02:09.707Z,1005.95
2022-10-13T11:03:09.660Z,1005.91
2022-10-13T11:04:09.622Z,1005.92
2022-10-13T11:05:09.642Z,1005.89
2022-10-13T11:06:09.625Z,1005.91
2022-10-13T11:07:10.208Z,1005.94
2022-10-13T11:08:09.617Z,1005.84
2022-10-13T11:09:09.588Z,1005.88
2022-10-13T11:10:10.259Z,1005.86
2022-10-13T11:11:09.569Z,1005.81
2022-10-13T11:12:09.539Z,1005.82
2022-10-13T11:13:09.546Z,1005.88
2022-10-13T11:14:09.755Z,1005.83
2022-10-13T11:15:09.501Z,1005.86
2022-10-13T11:16:10.208Z,1005.90
2022-10-13T11:17:09.499Z,1005.84
2022-10-13T11:18:09.477Z,1005.82
2022-10-13T11:19:09.729Z,1005.85
2022-10-13T11:20:09.508Z,1005.81
2022-10-13T11:21:09.433Z,1005.83
2022-10-13T11:22:09.422Z,1005.84
2022-10-13T11:23:09.415Z,1005.90
2022-10-13T11:24:09.428Z,1005.79
2022-10-13T11:25:09.416Z,1005.82
2022-10-13T11:26:09.393Z,1005.80
2022-10-13T11:27:09.395Z,1005.84
2022-10-13T11:28:09.378Z,1005.77
2022-10-13T11:29:09.365Z,1005.76
2022-10-13T11:30:09.378Z,1005.70
2022-10-13T11:31:09.336Z,1005.69
2022-10-13T11:32:09.351Z,1005.66
2022-10-13T11:33:09.334Z,1005.65
2022-10-13T11:34:09.287Z,1005.62
2022-10-13T11:35:09.285Z,1005.65
2022-10-13T11:36:09.265Z,1005.69
2022-10-13T11:37:09.266Z,1005.60
2022-10-13T11:38:13.931Z,1005.61
2022-10-13T11:39:09.249Z,1005.61
2022-10-13T11:40:09.275Z,1005.62
2022-10-13T11:41:09.218Z,1005.62
2022-10-13T11:42:10.207Z,1005.64
2022-10-13T11:43:09.373Z,1005.71
2022-10-13T11:44:09.209Z,1005.61
2022-10-13T11:45:09.257Z,1005.57
2022-10-13T11:46:09.190Z,1005.59
2022-10-13T11:47:09.293Z,1005.56
2022-10-13T11:49:09.243Z,1005.54
2022-10-13T11:50:09.111Z,1005.64
2022-10-13T11:51:11.331Z,1005.59
2022-10-13T11:52:10.748Z,1005.57
2022-10-13T11:53:10.724Z,1005.57
2022-10-13T11:54:09.071Z,1005.55
2022-10-13T11:55:09.081Z,1005.59
2022-10-13T11:56:09.726Z,1005.59
2022-10-13T11:57:09.863Z,1005.56
2022-10-13T11:58:09.025Z,1005.60
2022-10-13T11:59:09.026Z,1005.58
2022-10-13T12:00:09.008Z,1005.54
2022-10-13T12:01:09.686Z,1005.55
2022-10-13T12:02:16.968Z,1005.54
2022-10-13T12:03:09.024Z,1005.56
2022-10-13T12:04:08.974Z,1005.54
2022-10-13T12:05:08.945Z,1005.47
2022-10-13T12:06:08.943Z,1005.51